Time;durP1;ratioP1;P1;durP2;ratioP2;P2;SDS_P1;SDS_P2;PMS_P1;PMS_P2;Temp;Humidity;BMP_temperature;BMP_pressure;BME280_temperature;BME280_humidity;BME280_pressure;Samples;Min_cycle;Max_cycle;Signal;HPM_P1;HPM_P2
2021/12/08 00:00:55;;;;;;;2.42;1.50;;;;;;;-0.28;89.99;93646.16;5141772;27;20337;-78
2021/12/08 00:03:25;;;;;;;1.50;1.10;;;;;;;-0.32;89.70;93648.56;5142890;27;20197;-77
2021/12/08 00:05:53;;;;;;;2.75;1.38;;;;;;;-0.31;89.54;93650.16;5148406;27;20601;-77
2021/12/08 00:08:22;;;;;;;1.73;1.13;;;;;;;-0.31;89.67;93650.16;5146573;27;20224;-77
2021/12/08 00:13:02;;;;;;;2.05;1.30;;;;;;;-0.32;90.16;93663.75;5141822;27;20337;-77
2021/12/08 00:13:50;;;;;;;0.98;0.70;;;;;;;-0.40;90.04;93654.50;5141651;27;20196;-75
2021/12/08 00:16:17;;;;;;;1.77;1.33;;;;;;;-0.35;89.96;93670.41;5145256;27;20201;-76
2021/12/08 00:18:47;;;;;;;1.15;0.82;;;;;;;-0.27;90.02;93661.03;5149144;27;20269;-76
2021/12/08 00:21:16;;;;;;;1.42;1.00;;;;;;;-0.25;90.23;93674.81;5145793;27;20201;-76
2021/12/08 00:23:44;;;;;;;1.38;1.10;;;;;;;-0.28;89.95;93676.19;5141658;27;20193;-76
2021/12/08 00:26:11;;;;;;;2.05;1.55;;;;;;;-0.24;89.72;93673.75;5131519;27;20251;-76
2021/12/08 00:28:38;;;;;;;1.27;0.98;;;;;;;-0.26;88.63;93673.22;5137838;27;20709;-75
2021/12/08 00:31:07;;;;;;;1.58;0.93;;;;;;;-0.33;89.09;93678.91;5143144;27;20254;-75
2021/12/08 00:33:36;;;;;;;1.42;1.05;;;;;;;-0.36;89.19;93684.78;5147609;27;20211;-75
2021/12/08 00:36:06;;;;;;;1.20;1.10;;;;;;;-0.29;88.84;93687.13;5133753;27;20200;-75
2021/12/08 00:38:33;;;;;;;1.80;1.13;;;;;;;-0.29;88.98;93695.09;5148275;27;20771;-75
2021/12/08 00:41:00;;;;;;;1.73;0.88;;;;;;;-0.24;89.33;93692.38;5120210;27;20286;-75
2021/12/08 00:43:27;;;;;;;1.20;0.90;;;;;;;-0.25;88.87;93691.56;5147596;27;20201;-75
2021/12/08 00:45:55;;;;;;;2.08;1.20;;;;;;;-0.28;88.83;93692.16;5134473;27;20209;-75
2021/12/08 00:48:23;;;;;;;1.50;1.30;;;;;;;-0.27;88.38;93687.63;5147058;27;20236;-76
2021/12/08 00:50:51;;;;;;;1.13;1.00;;;;;;;-0.26;87.91;93695.31;5148427;27;20615;-75
2021/12/08 00:53:20;;;;;;;1.63;1.50;;;;;;;-0.21;87.74;93695.25;5142624;27;20864;-75
2021/12/08 00:55:46;;;;;;;1.38;1.23;;;;;;;-0.18;87.99;93697.38;5153348;27;20282;-76
2021/12/08 00:58:14;;;;;;;1.20;1.10;;;;;;;-0.21;87.72;93700.59;5142930;27;20252;-76
2021/12/08 01:00:43;;;;;;;1.67;1.00;;;;;;;-0.19;87.80;93692.31;5140744;27;20250;-77
2021/12/08 01:03:13;;;;;;;1.52;1.15;;;;;;;-0.18;87.80;93693.91;5145778;27;20563;-76
2021/12/08 01:05:43;;;;;;;1.45;1.05;;;;;;;-0.21;87.92;93705.91;5147430;27;20248;-76
2021/12/08 01:08:10;;;;;;;0.63;0.63;;;;;;;-0.20;87.58;93698.72;5143163;27;20678;-76
2021/12/08 01:10:41;;;;;;;0.85;0.85;;;;;;;-0.24;87.58;93703.81;5140946;27;20200;-76
2021/12/08 01:13:10;;;;;;;2.40;1.48;;;;;;;-0.23;87.02;93704.59;5143436;27;20593;-75
2021/12/08 01:15:38;;;;;;;1.38;1.27;;;;;;;-0.19;87.07;93706.41;5147549;27;20197;-76
2021/12/08 01:18:06;;;;;;;1.75;1.35;;;;;;;-0.19;87.44;93706.41;5144454;27;20260;-76
2021/12/08 01:20:33;;;;;;;1.77;1.25;;;;;;;-0.13;87.14;93705.28;5140557;27;20726;-76
2021/12/08 01:23:03;;;;;;;1.95;1.35;;;;;;;-0.21;87.18;93703.25;5142496;27;20540;-76
2021/12/08 01:25:29;;;;;;;1.23;0.85;;;;;;;-0.20;87.08;93710.16;5147152;27;20780;-76
2021/12/08 01:27:58;;;;;;;1.70;1.15;;;;;;;-0.21;87.74;93710.44;5145915;27;20220;-77
2021/12/08 01:30:25;;;;;;;2.17;1.27;;;;;;;-0.18;87.68;93708.00;5140348;27;20265;-77
2021/12/08 01:32:53;;;;;;;1.75;1.65;;;;;;;-0.16;87.46;93707.72;5141535;27;20196;-76
2021/12/08 01:35:20;;;;;;;2.72;1.52;;;;;;;-0.17;87.02;93704.28;5145697;27;20590;-77
2021/12/08 01:37:47;;;;;;;3.35;1.45;;;;;;;-0.18;87.30;93710.66;5139800;27;20250;-77
2021/12/08 01:40:15;;;;;;;4.25;2.15;;;;;;;-0.20;86.53;93715.47;5141089;27;20727;-76
2021/12/08 01:42:46;;;;;;;4.03;2.10;;;;;;;-0.17;87.55;93704.28;5133947;27;20216;-76
2021/12/08 01:48:03;;;;;;;3.80;2.47;;;;;;;-0.15;86.69;93717.31;5118848;27;20673;-76
2021/12/08 01:50:30;;;;;;;2.22;1.60;;;;;;;-0.11;86.83;93713.78;5132849;27;20243;-75
2021/12/08 01:52:57;;;;;;;2.15;1.33;;;;;;;-0.12;86.89;93716.72;5146750;27;20200;-76
2021/12/08 01:55:24;;;;;;;3.78;2.33;;;;;;;-0.14;86.80;93725.00;5145411;27;20201;-76
2021/12/08 01:57:52;;;;;;;3.30;2.05;;;;;;;-0.12;86.76;93722.81;5139603;27;20269;-76
2021/12/08 02:00:25;;;;;;;2.55;1.85;;;;;;;-0.14;86.80;93725.00;5141043;27;20223;-77
2021/12/08 02:02:52;;;;;;;2.67;1.92;;;;;;;-0.15;86.78;93728.75;5146568;27;20193;-77
2021/12/08 02:05:18;;;;;;;1.70;1.17;;;;;;;-0.07;86.76;93735.28;5146604;27;20196;-77
2021/12/08 02:07:45;;;;;;;4.82;2.15;;;;;;;-0.11;86.22;93735.06;5138464;27;20541;-77
2021/12/08 02:10:13;;;;;;;3.65;2.22;;;;;;;-0.08;86.89;93737.16;5139947;27;20228;-77
2021/12/08 02:12:41;;;;;;;4.60;2.83;;;;;;;-0.14;86.74;93740.97;5118820;27;20205;-77
2021/12/08 02:15:11;;;;;;;3.70;1.98;;;;;;;-0.07;87.28;93735.28;5146288;27;20700;-78
2021/12/08 02:17:40;;;;;;;2.38;1.70;;;;;;;-0.10;87.09;93741.19;5139877;27;20643;-77
2021/12/08 02:20:10;;;;;;;3.45;2.17;;;;;;;-0.12;87.18;93743.31;5150937;27;20208;-78
2021/12/08 02:22:39;;;;;;;5.15;2.33;;;;;;;-0.07;87.21;93745.94;5124253;27;20262;-78
2021/12/08 02:25:09;;;;;;;5.35;2.83;;;;;;;-0.12;87.67;93749.44;5129761;27;20286;-79
2021/12/08 02:27:37;;;;;;;2.85;2.08;;;;;;;-0.13;87.23;93750.50;5143888;27;20205;-79
2021/12/08 02:30:14;;;;;;;5.00;2.55;;;;;;;-0.15;86.66;93755.34;5146513;27;20276;-78
2021/12/08 02:49:22;;;;;;;7.57;5.00;;;;;;;-0.05;87.11;93768.53;5117335;27;20823;-78
2021/12/08 02:51:50;;;;;;;6.35;4.15;;;;;;;0.02;86.94;93760.19;5141447;27;20253;-79
2021/12/08 02:54:20;;;;;;;7.30;3.45;;;;;;;-0.03;86.85;93757.63;5136036;27;20248;-78
2021/12/08 02:56:47;;;;;;;6.57;3.42;;;;;;;-0.02;87.32;93764.53;5142642;27;20682;-77
2021/12/08 02:59:16;;;;;;;8.18;4.20;;;;;;;-0.04;87.36;93767.47;5138736;27;20248;-78
2021/12/08 03:01:42;;;;;;;9.10;3.88;;;;;;;-0.14;87.78;93766.78;5141572;27;20197;-78
2021/12/08 03:04:10;;;;;;;9.13;4.63;;;;;;;-0.08;87.10;93765.66;5145310;27;20208;-78
2021/12/08 03:06:37;;;;;;;8.52;4.80;;;;;;;-0.10;88.08;93784.56;5120146;28;20217;-78
2021/12/08 03:09:06;;;;;;;7.65;3.90;;;;;;;-0.12;87.39;93768.06;5142740;27;20694;-76
2021/12/08 03:11:35;;;;;;;7.90;4.65;;;;;;;-0.17;87.65;93778.78;5143744;27;20639;-76
2021/12/08 03:14:07;;;;;;;8.23;4.75;;;;;;;-0.20;87.85;93763.38;5138487;27;20204;-76
2021/12/08 03:16:35;;;;;;;14.98;5.25;;;;;;;-0.16;88.71;93777.72;5139158;27;20197;-79
2021/12/08 03:19:02;;;;;;;12.50;5.43;;;;;;;-0.16;87.81;93774.25;5125336;27;20204;-76
2021/12/08 03:21:31;;;;;;;9.77;4.28;;;;;;;-0.06;88.05;93769.63;5138468;27;20245;-77
2021/12/08 03:24:12;;;;;;;6.65;3.65;;;;;;;-0.10;87.97;93779.22;5144975;27;20289;-76
2021/12/08 03:26:50;;;;;;;7.63;3.95;;;;;;;-0.11;88.08;93777.66;5145808;27;20192;-77
2021/12/08 03:29:26;;;;;;;10.40;5.13;;;;;;;-0.11;87.72;93772.31;5142745;27;20207;-77
2021/12/08 03:31:55;;;;;;;8.77;4.88;;;;;;;-0.06;87.98;93780.25;5140669;27;20203;-77
2021/12/08 03:34:25;;;;;;;6.30;3.40;;;;;;;-0.01;87.66;93788.22;5142991;27;20925;-76
2021/12/08 03:36:53;;;;;;;8.05;5.07;;;;;;;-0.04;87.61;93788.75;5115335;28;20190;-78
2021/12/08 03:39:20;;;;;;;10.85;4.82;;;;;;;-0.05;87.85;93792.50;5138668;27;20205;-77
2021/12/08 03:41:49;;;;;;;9.88;4.43;;;;;;;-0.07;87.73;93794.63;5140996;27;20289;-78
2021/12/08 03:44:16;;;;;;;9.18;5.00;;;;;;;-0.14;88.21;93794.19;5141840;27;20212;-79
2021/12/08 03:46:44;;;;;;;8.20;4.97;;;;;;;-0.05;87.79;93795.16;5143196;27;20197;-80
2021/12/08 03:49:15;;;;;;;13.20;4.60;;;;;;;-0.08;87.56;93805.56;5142186;27;20224;-79
2021/12/08 03:51:43;;;;;;;8.35;4.25;;;;;;;-0.15;88.17;93805.91;5147167;27;20599;-77
2021/12/08 03:54:11;;;;;;;14.38;5.22;;;;;;;-0.14;88.43;93812.81;5149509;27;20539;-79
2021/12/08 03:56:38;;;;;;;7.25;4.30;;;;;;;-0.08;87.71;93803.69;5144022;27;20290;-78
2021/12/08 03:59:07;;;;;;;11.52;4.75;;;;;;;-0.04;88.00;93809.25;5142549;27;20254;-79
2021/12/08 04:01:35;;;;;;;7.35;4.35;;;;;;;0.03;87.79;93819.56;5146412;27;20286;-78
2021/12/08 04:04:06;;;;;;;11.48;5.22;;;;;;;-0.06;87.51;93814.06;5149329;27;20204;-79
2021/12/08 04:06:40;;;;;;;14.02;5.75;;;;;;;-0.05;87.37;93813.78;5145235;27;20275;-79
2021/12/08 04:09:18;;;;;;;12.73;4.45;;;;;;;-0.11;88.26;93830.88;5151880;27;20300;-80
2021/12/08 04:11:45;;;;;;;6.85;4.15;;;;;;;-0.13;87.77;93838.34;5147256;27;20682;-78
2021/12/08 04:14:19;;;;;;;8.13;4.00;;;;;;;-0.10;88.20;93827.13;5141322;27;20202;-80
2021/12/08 04:16:51;;;;;;;12.63;5.18;;;;;;;-0.04;88.22;93825.22;5141975;27;20204;-79
2021/12/08 04:19:20;;;;;;;7.15;4.60;;;;;;;-0.04;87.77;93820.69;5147175;27;20250;-79
2021/12/08 04:21:50;;;;;;;9.00;4.85;;;;;;;0.02;87.57;93833.94;5135155;27;20300;-80
2021/12/08 04:24:17;;;;;;;13.50;4.90;;;;;;;0.06;87.67;93834.97;5154886;27;20208;-80
2021/12/08 04:26:50;;;;;;;7.25;3.17;;;;;;;0.09;86.51;93834.41;5141568;27;20744;-80
2021/12/08 04:29:21;;;;;;;10.95;5.13;;;;;;;0.09;87.36;93843.19;5146117;27;20221;-80
2021/12/08 04:31:50;;;;;;;7.13;4.28;;;;;;;0.07;86.69;93836.56;5137482;27;20237;-81
2021/12/08 04:34:24;;;;;;;15.05;4.03;;;;;;;0.00;87.00;93845.66;5144214;27;20232;-80
2021/12/08 04:36:54;;;;;;;8.40;4.57;;;;;;;-0.04;87.42;93844.66;5138807;27;20726;-80
2021/12/08 04:39:27;;;;;;;6.10;4.13;;;;;;;-0.06;87.60;93838.81;5142213;27;20200;-81
2021/12/08 04:42:01;;;;;;;5.80;3.60;;;;;;;0.00;87.38;93853.66;5128493;27;20239;-81
2021/12/08 04:44:36;;;;;;;10.25;5.32;;;;;;;-0.01;87.62;93849.44;5140043;27;20197;-81
2021/12/08 04:52:41;;;;;;;16.15;8.77;;;;;;;0.00;87.72;93860.88;5128116;27;20406;-81
2021/12/08 05:03:46;;;;;;;10.90;5.57;;;;;;;0.06;86.78;93877.56;5141736;27;20209;-90
2021/12/08 05:06:23;;;;;;;9.20;4.95;;;;;;;-0.03;87.18;93874.72;5112962;28;20246;-79
2021/12/08 05:08:55;;;;;;;7.57;4.82;;;;;;;0.04;87.57;93887.69;5142972;27;20188;-80
2021/12/08 05:11:25;;;;;;;13.77;7.20;;;;;;;-0.09;87.35;93892.59;5143523;27;20281;-80
2021/12/08 05:13:57;;;;;;;9.85;4.32;;;;;;;-0.06;87.70;93892.03;5132769;27;20194;-80
2021/12/08 05:16:27;;;;;;;9.63;4.60;;;;;;;-0.01;87.62;93897.34;5134027;27;20244;-79
2021/12/08 05:18:56;;;;;;;12.95;5.75;;;;;;;0.00;87.33;93911.44;5119703;27;20265;-80
2021/12/08 05:21:29;;;;;;;11.63;5.50;;;;;;;-0.02;87.19;93903.72;5132633;27;20266;-80
2021/12/08 05:23:59;;;;;;;16.52;7.00;;;;;;;-0.11;87.53;93900.06;5131282;27;20204;-79
2021/12/08 05:26:32;;;;;;;13.43;8.02;;;;;;;-0.11;87.79;93910.72;5132317;27;20204;-78
2021/12/08 05:29:04;;;;;;;11.80;5.28;;;;;;;-0.09;87.51;93902.44;5130859;27;20287;-80
2021/12/08 05:31:34;;;;;;;14.02;5.57;;;;;;;-0.05;88.27;93906.16;5138475;27;20273;-80
2021/12/08 05:34:01;;;;;;;13.05;6.85;;;;;;;0.13;88.55;93907.34;5131226;27;20206;-79
2021/12/08 05:36:29;;;;;;;12.68;6.60;;;;;;;0.19;87.78;93904.34;5133227;27;20205;-79
2021/12/08 05:38:57;;;;;;;6.78;3.97;;;;;;;0.22;87.76;93893.13;5132708;27;20204;-79
2021/12/08 05:41:27;;;;;;;14.93;7.20;;;;;;;0.23;87.27;93888.59;5136334;27;20656;-78
2021/12/08 05:43:54;;;;;;;12.88;6.85;;;;;;;0.04;86.87;93906.34;5131433;27;20606;-76
2021/12/08 05:46:23;;;;;;;10.63;5.75;;;;;;;0.01;87.29;93918.31;5118402;27;20257;-86
2021/12/08 05:48:52;;;;;;;14.15;5.88;;;;;;;-0.05;88.06;93920.25;5129874;27;20197;-81
2021/12/08 05:51:24;;;;;;;11.27;4.80;;;;;;;-0.14;87.89;93916.59;5132758;27;20281;-77
2021/12/08 05:53:55;;;;;;;11.10;5.85;;;;;;;-0.14;88.13;93918.47;5132373;27;20217;-77
2021/12/08 05:56:23;;;;;;;11.45;5.78;;;;;;;-0.16;88.33;93916.09;5132381;27;20200;-79
2021/12/08 05:58:52;;;;;;;21.45;9.23;;;;;;;-0.18;88.39;93920.91;5132341;27;20205;-76
2021/12/08 06:01:22;;;;;;;19.48;8.40;;;;;;;-0.18;88.92;93920.09;5116919;27;20573;-76
2021/12/08 06:03:51;;;;;;;13.13;6.97;;;;;;;-0.22;88.92;93925.16;5113689;27;20206;-78
2021/12/08 06:06:19;;;;;;;16.35;8.57;;;;;;;-0.19;89.39;93935.28;5122056;27;20193;-80
2021/12/08 06:08:46;;;;;;;8.43;5.45;;;;;;;-0.18;89.13;93936.84;5117149;27;20598;-78
2021/12/08 06:11:15;;;;;;;14.52;4.95;;;;;;;-0.11;88.80;93947.19;5140321;27;20228;-80
2021/12/08 06:13:43;;;;;;;12.52;6.20;;;;;;;0.05;88.63;93950.53;5127533;27;20201;-77
2021/12/08 06:16:13;;;;;;;11.18;5.43;;;;;;;0.00;88.75;93959.34;5117980;27;20200;-77
2021/12/08 06:18:40;;;;;;;9.57;5.22;;;;;;;0.04;87.76;93957.72;5118693;27;20205;-78
2021/12/08 06:21:12;;;;;;;15.02;7.43;;;;;;;-0.01;88.13;93963.88;5123096;27;20201;-80
2021/12/08 06:23:40;;;;;;;6.25;3.58;;;;;;;0.06;87.57;93968.06;5126186;27;20603;-81
2021/12/08 06:26:09;;;;;;;12.60;5.18;;;;;;;0.05;87.17;93963.81;5120583;27;20236;-80
2021/12/08 06:28:37;;;;;;;12.80;6.25;;;;;;;0.07;86.81;93975.00;5130966;27;20558;-80
2021/12/08 06:31:05;;;;;;;12.68;6.18;;;;;;;0.07;86.36;93977.66;5130908;27;20231;-77
2021/12/08 06:33:32;;;;;;;7.50;4.45;;;;;;;0.02;86.96;93973.16;5139626;27;20274;-77
2021/12/08 06:36:10;;;;;;;14.70;7.57;;;;;;;-0.03;86.49;93976.66;5116861;27;20617;-78
2021/12/08 06:38:44;;;;;;;11.85;5.45;;;;;;;0.03;86.38;93973.94;5123870;27;20324;-82
2021/12/08 06:41:15;;;;;;;10.05;5.05;;;;;;;0.00;86.06;93970.78;5130764;27;20237;-75
2021/12/08 06:43:44;;;;;;;12.10;6.63;;;;;;;0.03;86.78;93980.06;5130757;27;20201;-75
2021/12/08 06:46:16;;;;;;;10.55;5.25;;;;;;;-0.08;86.39;93968.72;5131598;27;20208;-76
2021/12/08 06:48:48;;;;;;;10.73;6.35;;;;;;;-0.01;86.82;93966.53;5130568;27;20215;-82
2021/12/08 06:51:19;;;;;;;9.15;5.53;;;;;;;0.05;86.34;93958.50;5131538;27;20582;-78
2021/12/08 06:53:50;;;;;;;11.85;6.25;;;;;;;0.02;86.62;93964.38;5131394;27;20205;-81
2021/12/08 06:56:23;;;;;;;8.73;5.97;;;;;;;0.04;86.62;93964.91;5130310;27;20299;-81
2021/12/08 06:58:55;;;;;;;7.55;3.97;;;;;;;-0.01;86.00;93968.41;5144727;27;20193;-76
2021/12/08 07:01:41;;;;;;;13.93;6.03;;;;;;;-0.09;86.24;93967.13;5118464;27;20205;-79
2021/12/08 07:04:25;;;;;;;11.88;4.60;;;;;;;-0.13;85.93;93973.25;5120100;27;20189;-77
2021/12/08 07:06:59;;;;;;;14.63;5.70;;;;;;;-0.12;86.92;93975.66;5115412;27;20623;-79
2021/12/08 07:09:32;;;;;;;8.10;4.43;;;;;;;-0.18;86.28;93966.13;5120815;27;20216;-78
2021/12/08 07:12:04;;;;;;;10.80;4.70;;;;;;;-0.05;86.41;93967.38;5132141;27;20279;-78
2021/12/08 07:14:33;;;;;;;9.95;4.53;;;;;;;-0.04;86.51;93971.63;5141789;27;20247;-76
2021/12/08 07:17:03;;;;;;;8.00;4.80;;;;;;;0.03;86.20;93989.94;5144884;27;20249;-79
2021/12/08 07:19:42;;;;;;;7.95;4.22;;;;;;;-0.03;85.96;93989.97;5119928;28;20198;-77
2021/12/08 07:22:11;;;;;;;15.32;5.78;;;;;;;-0.09;86.50;93983.09;5128825;27;20204;-78
2021/12/08 07:24:43;;;;;;;10.63;4.68;;;;;;;-0.09;86.55;94001.72;5130879;27;20510;-80
2021/12/08 07:27:14;;;;;;;13.40;6.80;;;;;;;0.04;86.33;94004.81;5130776;27;20197;-79
2021/12/08 07:29:44;;;;;;;12.63;5.60;;;;;;;0.02;86.04;94005.09;5131205;27;20551;-80
2021/12/08 07:32:15;;;;;;;7.40;4.40;;;;;;;0.00;85.93;94012.59;5130945;27;20197;-79
2021/12/08 07:34:43;;;;;;;8.68;4.47;;;;;;;0.00;85.46;94005.38;5130446;27;20269;-82
2021/12/08 07:37:14;;;;;;;11.52;5.38;;;;;;;-0.11;85.41;94006.53;5125666;27;20258;-81
2021/12/08 07:39:46;;;;;;;6.18;4.07;;;;;;;-0.20;85.88;94013.50;5130782;27;20716;-78
2021/12/08 07:42:20;;;;;;;11.27;4.20;;;;;;;-0.04;85.93;94025.66;5130573;27;20236;-78
2021/12/08 07:44:50;;;;;;;9.35;5.38;;;;;;;-0.06;85.86;94024.34;5130671;27;20205;-77
2021/12/08 07:47:20;;;;;;;11.65;5.15;;;;;;;-0.01;85.53;94006.47;5143190;27;20207;-81
2021/12/08 07:49:52;;;;;;;11.45;5.53;;;;;;;-0.01;85.24;94022.44;5111812;27;20229;-79
2021/12/08 07:52:22;;;;;;;10.07;5.13;;;;;;;-0.02;85.28;94026.19;5109775;28;20785;-78
2021/12/08 07:54:52;;;;;;;14.57;6.70;;;;;;;-0.09;85.62;94036.31;5117196;27;20201;-78
2021/12/08 07:57:25;;;;;;;8.35;4.35;;;;;;;0.06;85.01;94045.28;5129979;27;20205;-85
2021/12/08 07:59:57;;;;;;;13.85;6.28;;;;;;;0.04;85.11;94039.44;5130861;27;20197;-78
2021/12/08 08:02:26;;;;;;;6.57;4.20;;;;;;;0.06;84.33;94029.31;5141678;27;20201;-78
2021/12/08 08:04:56;;;;;;;8.80;4.22;;;;;;;0.19;84.44;94042.00;5122986;28;20209;-79
2021/12/08 08:07:24;;;;;;;9.73;4.28;;;;;;;0.23;84.22;94043.03;5130859;27;20610;-78
2021/12/08 08:10:00;;;;;;;10.65;5.32;;;;;;;0.26;83.58;94037.16;5140356;27;20261;-77
2021/12/08 08:12:29;;;;;;;10.18;5.30;;;;;;;0.29;84.07;94042.72;5139401;27;20525;-77
2021/12/08 08:15:01;;;;;;;14.75;5.85;;;;;;;0.19;83.94;94048.13;5121471;28;20201;-78
2021/12/08 08:17:34;;;;;;;10.00;4.88;;;;;;;0.18;84.15;94053.72;5131218;27;20197;-81
2021/12/08 08:20:03;;;;;;;6.43;3.53;;;;;;;0.14;84.87;94055.34;5130741;27;20201;-83
2021/12/08 08:22:31;;;;;;;9.60;4.80;;;;;;;0.13;84.50;94049.25;5132354;27;20207;-78
2021/12/08 08:25:07;;;;;;;9.73;4.80;;;;;;;0.30;84.22;94051.50;5134164;27;20221;-80
2021/12/08 08:27:34;;;;;;;6.30;4.47;;;;;;;0.31;84.41;94056.56;5134670;27;20635;-80
2021/12/08 08:30:06;;;;;;;7.10;3.70;;;;;;;0.30;83.92;94054.16;5113473;28;20201;-80
2021/12/08 08:32:35;;;;;;;8.95;5.35;;;;;;;0.42;83.99;94059.13;5113330;28;20201;-79
2021/12/08 08:35:08;;;;;;;9.73;5.30;;;;;;;0.55;83.97;94050.50;5130950;27;20201;-80
2021/12/08 08:37:35;;;;;;;9.85;5.72;;;;;;;0.47;83.59;94040.47;5144982;27;20238;-79
2021/12/08 08:40:10;;;;;;;11.20;6.05;;;;;;;0.51;83.21;94050.28;5116981;27;20648;-79
2021/12/08 08:42:41;;;;;;;12.68;4.65;;;;;;;0.74;83.26;94050.63;5118842;27;20251;-80
2021/12/08 08:45:15;;;;;;;9.90;5.43;;;;;;;0.58;81.70;94042.75;5140266;27;20253;-79
2021/12/08 08:47:45;;;;;;;10.70;4.68;;;;;;;0.59;82.12;94047.00;5133116;27;20204;-78
2021/12/08 08:50:28;;;;;;;10.43;5.40;;;;;;;0.56;82.72;94042.22;5131492;27;20217;-78
2021/12/08 08:52:58;;;;;;;9.77;3.97;;;;;;;0.74;82.53;94047.97;5132555;27;20200;-80
2021/12/08 08:55:32;;;;;;;9.70;5.15;;;;;;;0.63;82.05;94041.94;5133384;27;20663;-78
2021/12/08 08:58:00;;;;;;;9.00;4.25;;;;;;;0.79;82.06;94039.94;5133223;27;20208;-80
2021/12/08 09:00:31;;;;;;;10.57;5.75;;;;;;;0.61;82.10;94044.88;5132440;27;20208;-79
2021/12/08 09:03:01;;;;;;;9.15;4.47;;;;;;;0.71;82.15;94038.63;5133692;27;20704;-77
2021/12/08 09:05:32;;;;;;;13.07;5.22;;;;;;;0.77;81.53;94036.75;5130874;27;20204;-78
2021/12/08 09:08:01;;;;;;;6.45;3.60;;;;;;;0.90;81.50;94041.41;5123914;27;20205;-78
2021/12/08 09:10:35;;;;;;;8.82;4.60;;;;;;;1.04;82.05;94032.47;5132607;27;20233;-78
2021/12/08 09:13:07;;;;;;;6.32;3.92;;;;;;;0.88;81.48;94027.56;5143168;27;20192;-77
2021/12/08 09:15:37;;;;;;;9.30;4.93;;;;;;;0.91;81.39;94016.34;5125724;27;20638;-79
2021/12/08 09:18:09;;;;;;;8.90;5.15;;;;;;;0.98;81.57;94016.78;5112171;28;20271;-81
2021/12/08 09:20:43;;;;;;;7.82;4.95;;;;;;;1.01;81.52;94016.22;5135474;27;20204;-77
2021/12/08 09:23:21;;;;;;;18.08;8.88;;;;;;;0.79;81.96;94008.72;5123789;27;20205;-78
2021/12/08 09:25:53;;;;;;;11.07;5.68;;;;;;;0.86;81.72;93998.53;5120860;27;20265;-79
2021/12/08 09:28:28;;;;;;;18.23;6.43;;;;;;;0.84;81.99;93994.53;5135178;27;20205;-79
2021/12/08 09:31:02;;;;;;;8.57;4.35;;;;;;;0.99;82.58;93997.06;5141878;27;20745;-76
2021/12/08 09:33:37;;;;;;;9.85;5.30;;;;;;;0.90;82.59;93996.09;5137033;27;20193;-78
2021/12/08 09:36:07;;;;;;;17.33;8.70;;;;;;;0.68;83.23;93992.03;5132965;27;20216;-78
2021/12/08 09:38:40;;;;;;;16.35;7.03;;;;;;;0.67;83.74;93995.78;5137581;27;20620;-77
2021/12/08 09:41:14;;;;;;;16.00;7.60;;;;;;;0.76;83.30;94003.16;5114476;27;20275;-80
2021/12/08 09:43:44;;;;;;;15.35;7.65;;;;;;;0.88;83.20;93996.38;5132355;27;20209;-80
2021/12/08 09:46:18;;;;;;;18.88;6.93;;;;;;;0.81;83.32;94000.47;5143323;27;20293;-80
2021/12/08 09:48:47;;;;;;;10.40;5.95;;;;;;;0.87;83.04;93992.13;5111844;28;20201;-78
2021/12/08 09:51:15;;;;;;;16.88;6.88;;;;;;;0.75;83.62;93996.25;5129008;27;20289;-79
2021/12/08 09:53:43;;;;;;;12.05;7.80;;;;;;;0.82;83.56;94000.16;5131696;27;20780;-79
2021/12/08 09:56:12;;;;;;;15.00;7.68;;;;;;;0.81;83.21;93989.78;5133883;27;20211;-79
2021/12/08 09:58:40;;;;;;;13.57;6.53;;;;;;;0.80;83.30;93983.66;5128938;27;20202;-82
2021/12/08 10:01:13;;;;;;;10.63;5.57;;;;;;;0.85;83.84;93982.81;5133986;27;20206;-80
2021/12/08 10:03:40;;;;;;;12.98;7.28;;;;;;;0.94;83.27;93992.59;5126039;27;20205;-78
2021/12/08 10:06:09;;;;;;;21.33;11.43;;;;;;;1.04;82.77;93978.34;5130691;27;20230;-78
2021/12/08 10:08:36;;;;;;;17.10;7.65;;;;;;;0.96;82.07;93997.59;5131172;27;20265;-82
2021/12/08 10:11:03;;;;;;;15.52;6.35;;;;;;;1.05;82.84;93996.72;5138246;27;20223;-79
2021/12/08 10:13:31;;;;;;;10.07;5.78;;;;;;;0.97;82.85;93993.88;5124818;27;20205;-79
2021/12/08 10:15:58;;;;;;;15.65;7.18;;;;;;;1.05;82.35;94002.06;5133104;27;20193;-78
2021/12/08 10:18:25;;;;;;;14.48;6.40;;;;;;;0.99;82.50;94008.50;5132689;27;20269;-77
2021/12/08 10:20:55;;;;;;;11.93;5.85;;;;;;;1.11;81.97;94005.44;5130525;27;20380;-78
2021/12/08 10:23:27;;;;;;;10.15;5.20;;;;;;;1.01;82.11;94003.69;5129526;27;20270;-78
2021/12/08 10:25:57;;;;;;;14.93;6.88;;;;;;;0.92;82.88;93981.41;5119119;27;20232;-81
2021/12/08 10:28:28;;;;;;;11.25;5.97;;;;;;;1.24;82.37;93988.75;5134195;27;20204;-78
2021/12/08 10:31:02;;;;;;;9.20;4.78;;;;;;;1.14;82.12;93983.56;5141264;27;20220;-78
2021/12/08 10:33:48;;;;;;;13.60;6.13;;;;;;;1.12;82.19;93985.69;5131581;27;20246;-79
2021/12/08 10:36:43;;;;;;;8.85;4.88;;;;;;;1.31;82.17;93978.56;5138483;27;20192;-78
2021/12/08 10:39:13;;;;;;;9.13;5.45;;;;;;;1.32;82.40;93992.69;5114034;27;20223;-79
2021/12/08 10:41:57;;;;;;;13.80;7.57;;;;;;;1.31;81.71;93989.22;5129917;27;20232;-78
2021/12/08 10:44:26;;;;;;;13.02;6.22;;;;;;;1.36;81.87;93970.50;5131101;27;20196;-79
2021/12/08 10:46:57;;;;;;;11.98;7.65;;;;;;;1.21;82.18;93983.22;5131303;27;20197;-82
2021/12/08 10:54:23;;;;;;;9.57;3.97;;;;;;;1.36;82.35;93983.03;5130643;27;20273;-82
2021/12/08 10:55:00;;;;;;;10.82;5.50;;;;;;;1.34;81.70;93978.00;5131395;27;20554;-79
2021/12/08 10:57:31;;;;;;;13.70;5.93;;;;;;;1.16;81.63;93981.41;5130478;27;20215;-85
2021/12/08 11:00:07;;;;;;;10.95;5.68;;;;;;;0.85;82.15;93974.81;5130284;27;20201;-84
2021/12/08 11:02:48;;;;;;;14.25;5.47;;;;;;;0.87;82.56;93975.31;5130148;27;20663;-84
2021/12/08 11:05:39;;;;;;;12.70;6.07;;;;;;;0.85;82.44;93974.81;5131071;27;20227;-83
2021/12/08 11:08:10;;;;;;;14.68;7.18;;;;;;;1.04;82.78;93973.00;5126694;27;20193;-78
2021/12/08 11:10:39;;;;;;;9.73;4.72;;;;;;;1.08;82.15;93971.38;5130084;27;20193;-81
2021/12/08 11:13:09;;;;;;;12.30;5.85;;;;;;;0.92;82.14;93975.28;5131345;28;20249;-83
2021/12/08 11:15:37;;;;;;;7.78;4.95;;;;;;;0.93;82.34;93991.00;5144369;27;20280;-81
2021/12/08 11:18:11;;;;;;;12.73;5.57;;;;;;;1.14;82.42;93988.88;5130733;27;20684;-82
2021/12/08 11:20:44;;;;;;;9.65;5.65;;;;;;;1.08;82.59;93990.03;5130934;27;20268;-79
2021/12/08 11:23:15;;;;;;;16.10;7.18;;;;;;;0.96;82.15;93993.06;5130063;27;20205;-79
2021/12/08 11:25:45;;;;;;;13.35;6.30;;;;;;;0.85;82.51;93990.81;5129704;27;20248;-80
2021/12/08 11:28:22;;;;;;;11.00;5.28;;;;;;;1.11;83.09;93985.97;5129323;27;20605;-80
2021/12/08 11:30:51;;;;;;;15.88;7.57;;;;;;;1.06;82.12;93974.31;5130864;27;20617;-80
2021/12/08 11:33:21;;;;;;;12.30;6.72;;;;;;;1.06;82.66;93982.31;5141632;27;20200;-79
2021/12/08 11:35:49;;;;;;;9.30;5.25;;;;;;;1.16;82.80;93992.06;5126570;28;20201;-78
2021/12/08 11:38:25;;;;;;;11.38;5.55;;;;;;;1.18;82.00;93981.91;5113028;28;20652;-77
2021/12/08 11:40:52;;;;;;;13.25;7.82;;;;;;;1.50;81.52;93985.81;5115140;28;20459;-79
2021/12/08 11:43:29;;;;;;;10.50;5.78;;;;;;;1.54;80.68;93992.13;5110886;28;20201;-80
2021/12/08 11:46:10;;;;;;;12.55;7.38;;;;;;;1.21;81.92;93992.03;5109680;28;20208;-78
2021/12/08 11:48:51;;;;;;;9.70;5.53;;;;;;;1.23;81.37;93994.41;5110304;28;20729;-80
2021/12/08 11:51:18;;;;;;;11.85;6.25;;;;;;;1.02;81.79;94001.81;5114368;27;20705;-81
2021/12/08 11:53:45;;;;;;;13.27;6.82;;;;;;;0.86;82.04;94005.72;5134504;27;20598;-83
2021/12/08 11:56:36;;;;;;;8.77;5.32;;;;;;;0.84;82.25;94005.19;5128588;27;20202;-80
2021/12/08 11:59:05;;;;;;;10.38;4.85;;;;;;;0.81;82.16;94005.78;5128934;27;20745;-78
2021/12/08 12:01:32;;;;;;;11.38;6.15;;;;;;;0.63;82.85;94007.28;5134930;27;20239;-78
2021/12/08 12:04:00;;;;;;;10.50;5.70;;;;;;;0.85;82.98;94009.47;5134034;27;20224;-84
2021/12/08 12:06:28;;;;;;;5.93;3.60;;;;;;;0.86;82.30;94008.38;5131521;27;20212;-80
2021/12/08 12:08:59;;;;;;;16.13;5.45;;;;;;;0.82;83.10;94023.38;5134338;27;20656;-80
2021/12/08 12:11:27;;;;;;;14.23;6.93;;;;;;;0.70;83.19;94026.38;5132375;27;20257;-79
2021/12/08 12:13:55;;;;;;;13.43;7.32;;;;;;;0.42;83.59;94011.97;5133999;27;20215;-80
2021/12/08 12:16:23;;;;;;;15.00;7.45;;;;;;;0.27;83.91;94010.22;5132281;27;20280;-77
2021/12/08 12:18:52;;;;;;;12.98;5.53;;;;;;;0.34;83.85;94017.91;5135176;27;20200;-80
2021/12/08 12:21:30;;;;;;;8.18;5.43;;;;;;;0.24;84.35;94008.16;5130896;27;20560;-78
2021/12/08 12:24:21;;;;;;;18.05;6.68;;;;;;;0.30;84.24;94025.66;5119876;27;20224;-79
2021/12/08 12:26:59;;;;;;;8.25;5.18;;;;;;;0.50;84.21;94022.06;5129874;27;20246;-79